Portada
METAR-TAF:

METAR-TAF

Aeroports :

Magnitogorsk, Rússia

latitud: 53-23-36N, longitud: 058-45-24E, altitud: 436 m

Observació

L'informe es va fer fa 23 minuts, a les 08:00 UTC
Vent 12 kt del Sud
Temperatura -2°C
Humitat 80%
Pressió 1021 hPa
Visibilitat 10 km o més

METAR: USCM 120800Z 19006MPS 9999 NSC M02/M05 Q1021 R18/950542 NOSIG RMK QFE728

Hora: 13:23 (08:23 UTC)

Pronòstic

L'informe es va fer fa 3 hores i 23 minuts, a les 05:00 UTC
Pronòstic vàlid del 12 a les 06 UTC al 12 a les 15 UTC
Vent 6 kt del Sud/Sud-Oest amb ràfegues de 16 kt
Visibilitat 10 km o més
Núvols disperses a una alçada de 3000 ft, Cumulonimbus.
Temporalment
l' 12 a les 06 UTC al 12 a les 15 UTC
Vent 10 kt del Sud-Oest amb ràfegues de 19 kt
Cel ennuvolat a una alçada de 1500 ft, Cumulonimbus.

TAF: USCM 120500Z 1206/1215 21003G08MPS 9999 SCT030CB TEMPO 1206/1215 23005G10MPS BKN015CB

Observacions i pronòstics meteorològics de més de 4000 aeroports (METAR i TAF).

Les estacions disponibles són els punts grocs i vermells al mapa.

Posi el ratolí al punt desitjat per veure el nom de l'estació.

Feu clic per veure les observacions i els pronòstics meteorològics.

Per canviar el mapa: feu clic els botons verds amb una creu de color negre per apropar; al botó verd amb un guió per allunyar la imatge; o en les fletxes verdes per a mapes adjacents.


METAR-TAF: